sensor_id;sensor_type;location;lat;lon;timestamp;P1;durP1;ratioP1;P2;durP2;ratioP2
44046;SDS011;29713;-33.888;151.150;2023-04-25T00:00:09;10.52;;;2.72;;
44046;SDS011;29713;-33.888;151.150;2023-04-25T00:02:37;12.18;;;2.45;;
44046;SDS011;29713;-33.888;151.150;2023-04-25T00:05:04;10.90;;;2.40;;
44046;SDS011;29713;-33.888;151.150;2023-04-25T00:07:32;9.43;;;2.45;;
44046;SDS011;29713;-33.888;151.150;2023-04-25T00:10:00;11.52;;;2.40;;
44046;SDS011;29713;-33.888;151.150;2023-04-25T00:12:28;9.35;;;2.80;;
44046;SDS011;29713;-33.888;151.150;2023-04-25T00:14:55;8.05;;;2.50;;
44046;SDS011;29713;-33.888;151.150;2023-04-25T00:17:23;8.77;;;2.50;;
44046;SDS011;29713;-33.888;151.150;2023-04-25T00:19:50;8.18;;;3.03;;
44046;SDS011;29713;-33.888;151.150;2023-04-25T00:22:18;10.98;;;2.95;;
44046;SDS011;29713;-33.888;151.150;2023-04-25T00:24:47;10.02;;;2.60;;
44046;SDS011;29713;-33.888;151.150;2023-04-25T00:27:14;7.75;;;2.55;;
44046;SDS011;29713;-33.888;151.150;2023-04-25T00:29:41;9.95;;;2.72;;
44046;SDS011;29713;-33.888;151.150;2023-04-25T00:32:09;9.23;;;2.90;;
44046;SDS011;29713;-33.888;151.150;2023-04-25T00:34:36;9.43;;;2.22;;
44046;SDS011;29713;-33.888;151.150;2023-04-25T00:37:03;7.95;;;2.40;;
44046;SDS011;29713;-33.888;151.150;2023-04-25T00:39:31;7.22;;;2.80;;
44046;SDS011;29713;-33.888;151.150;2023-04-25T00:41:58;9.43;;;2.75;;
44046;SDS011;29713;-33.888;151.150;2023-04-25T00:44:27;6.75;;;2.50;;
44046;SDS011;29713;-33.888;151.150;2023-04-25T00:46:57;8.73;;;2.75;;
44046;SDS011;29713;-33.888;151.150;2023-04-25T00:49:26;8.75;;;2.75;;
44046;SDS011;29713;-33.888;151.150;2023-04-25T00:52:05;7.15;;;2.53;;
44046;SDS011;29713;-33.888;151.150;2023-04-25T00:54:33;7.40;;;2.50;;
44046;SDS011;29713;-33.888;151.150;2023-04-25T00:57:00;7.35;;;2.47;;
44046;SDS011;29713;-33.888;151.150;2023-04-25T00:59:28;6.85;;;2.63;;
44046;SDS011;29713;-33.888;151.150;2023-04-25T01:01:57;7.13;;;2.38;;
44046;SDS011;29713;-33.888;151.150;2023-04-25T01:04:26;8.38;;;2.53;;
44046;SDS011;29713;-33.888;151.150;2023-04-25T01:06:54;9.20;;;2.30;;
44046;SDS011;29713;-33.888;151.150;2023-04-25T01:09:22;5.30;;;2.45;;
44046;SDS011;29713;-33.888;151.150;2023-04-25T01:11:50;4.85;;;2.35;;
44046;SDS011;29713;-33.888;151.150;2023-04-25T01:14:17;5.95;;;2.53;;
44046;SDS011;29713;-33.888;151.150;2023-04-25T01:16:45;5.63;;;2.53;;
44046;SDS011;29713;-33.888;151.150;2023-04-25T01:19:12;7.03;;;2.60;;
44046;SDS011;29713;-33.888;151.150;2023-04-25T01:21:43;6.20;;;2.60;;
44046;SDS011;29713;-33.888;151.150;2023-04-25T01:24:12;5.25;;;2.25;;
44046;SDS011;29713;-33.888;151.150;2023-04-25T01:26:40;10.48;;;2.95;;
44046;SDS011;29713;-33.888;151.150;2023-04-25T01:29:21;7.00;;;2.70;;
44046;SDS011;29713;-33.888;151.150;2023-04-25T01:31:50;7.15;;;2.80;;
44046;SDS011;29713;-33.888;151.150;2023-04-25T01:34:19;10.48;;;3.40;;
44046;SDS011;29713;-33.888;151.150;2023-04-25T01:36:47;7.05;;;2.60;;
44046;SDS011;29713;-33.888;151.150;2023-04-25T01:39:16;5.22;;;2.60;;
44046;SDS011;29713;-33.888;151.150;2023-04-25T01:41:45;6.57;;;3.10;;
44046;SDS011;29713;-33.888;151.150;2023-04-25T01:44:13;5.68;;;3.03;;
44046;SDS011;29713;-33.888;151.150;2023-04-25T01:46:41;8.63;;;2.65;;
44046;SDS011;29713;-33.888;151.150;2023-04-25T01:49:09;5.40;;;2.72;;
44046;SDS011;29713;-33.888;151.150;2023-04-25T01:51:36;9.77;;;3.03;;
44046;SDS011;29713;-33.888;151.150;2023-04-25T01:54:04;6.07;;;2.38;;
44046;SDS011;29713;-33.888;151.150;2023-04-25T01:56:32;4.63;;;2.50;;
44046;SDS011;29713;-33.888;151.150;2023-04-25T01:59:03;7.53;;;2.90;;
44046;SDS011;29713;-33.888;151.150;2023-04-25T02:01:31;6.05;;;2.55;;
44046;SDS011;29713;-33.888;151.150;2023-04-25T02:03:58;7.22;;;2.33;;
44046;SDS011;29713;-33.888;151.150;2023-04-25T02:06:26;6.35;;;2.75;;
44046;SDS011;29713;-33.888;151.150;2023-04-25T02:08:53;7.63;;;2.40;;
44046;SDS011;29713;-33.888;151.150;2023-04-25T02:11:21;7.07;;;2.63;;
44046;SDS011;29713;-33.888;151.150;2023-04-25T02:13:48;6.60;;;2.47;;
44046;SDS011;29713;-33.888;151.150;2023-04-25T02:16:16;7.15;;;2.30;;
44046;SDS011;29713;-33.888;151.150;2023-04-25T02:18:43;5.30;;;2.50;;
44046;SDS011;29713;-33.888;151.150;2023-04-25T02:21:10;5.88;;;2.50;;
44046;SDS011;29713;-33.888;151.150;2023-04-25T02:23:38;6.70;;;2.40;;
44046;SDS011;29713;-33.888;151.150;2023-04-25T02:26:05;5.50;;;2.15;;
44046;SDS011;29713;-33.888;151.150;2023-04-25T02:28:33;7.65;;;2.22;;
44046;SDS011;29713;-33.888;151.150;2023-04-25T02:31:00;5.53;;;2.05;;
44046;SDS011;29713;-33.888;151.150;2023-04-25T02:33:27;6.72;;;2.58;;
44046;SDS011;29713;-33.888;151.150;2023-04-25T02:35:55;6.53;;;2.35;;
44046;SDS011;29713;-33.888;151.150;2023-04-25T02:38:22;6.35;;;2.35;;
44046;SDS011;29713;-33.888;151.150;2023-04-25T02:40:49;5.30;;;2.45;;
44046;SDS011;29713;-33.888;151.150;2023-04-25T02:43:17;5.60;;;2.40;;
44046;SDS011;29713;-33.888;151.150;2023-04-25T02:45:44;6.88;;;2.22;;
44046;SDS011;29713;-33.888;151.150;2023-04-25T02:48:11;6.10;;;2.05;;
44046;SDS011;29713;-33.888;151.150;2023-04-25T02:50:39;6.00;;;2.38;;
44046;SDS011;29713;-33.888;151.150;2023-04-25T02:53:06;6.32;;;2.35;;
44046;SDS011;29713;-33.888;151.150;2023-04-25T02:55:33;8.07;;;2.17;;
44046;SDS011;29713;-33.888;151.150;2023-04-25T02:58:01;5.22;;;1.70;;
44046;SDS011;29713;-33.888;151.150;2023-04-25T03:00:28;5.55;;;2.28;;
44046;SDS011;29713;-33.888;151.150;2023-04-25T03:02:55;4.97;;;2.15;;
44046;SDS011;29713;-33.888;151.150;2023-04-25T03:05:23;9.45;;;2.63;;
44046;SDS011;29713;-33.888;151.150;2023-04-25T03:07:50;5.03;;;1.95;;
44046;SDS011;29713;-33.888;151.150;2023-04-25T03:10:17;7.95;;;2.63;;
44046;SDS011;29713;-33.888;151.150;2023-04-25T03:12:45;5.10;;;2.17;;
44046;SDS011;29713;-33.888;151.150;2023-04-25T03:15:12;7.45;;;2.67;;
44046;SDS011;29713;-33.888;151.150;2023-04-25T03:17:42;6.68;;;2.42;;
44046;SDS011;29713;-33.888;151.150;2023-04-25T03:20:09;6.57;;;2.28;;
44046;SDS011;29713;-33.888;151.150;2023-04-25T03:22:37;6.28;;;2.35;;
44046;SDS011;29713;-33.888;151.150;2023-04-25T03:25:05;9.63;;;2.35;;
44046;SDS011;29713;-33.888;151.150;2023-04-25T03:27:33;8.13;;;2.50;;
44046;SDS011;29713;-33.888;151.150;2023-04-25T03:30:00;6.45;;;2.30;;
44046;SDS011;29713;-33.888;151.150;2023-04-25T03:32:28;5.20;;;2.00;;
44046;SDS011;29713;-33.888;151.150;2023-04-25T03:34:55;7.43;;;2.42;;
44046;SDS011;29713;-33.888;151.150;2023-04-25T03:37:23;8.23;;;2.45;;
44046;SDS011;29713;-33.888;151.150;2023-04-25T03:39:50;7.93;;;2.25;;
44046;SDS011;29713;-33.888;151.150;2023-04-25T03:42:17;7.53;;;2.42;;
44046;SDS011;29713;-33.888;151.150;2023-04-25T03:44:45;7.25;;;2.38;;
44046;SDS011;29713;-33.888;151.150;2023-04-25T03:47:12;5.97;;;2.03;;
44046;SDS011;29713;-33.888;151.150;2023-04-25T03:49:39;6.78;;;2.70;;
44046;SDS011;29713;-33.888;151.150;2023-04-25T03:52:07;8.73;;;2.25;;
44046;SDS011;29713;-33.888;151.150;2023-04-25T03:54:34;8.55;;;2.38;;
44046;SDS011;29713;-33.888;151.150;2023-04-25T03:57:02;12.85;;;2.67;;
44046;SDS011;29713;-33.888;151.150;2023-04-25T03:59:29;10.32;;;2.65;;
44046;SDS011;29713;-33.888;151.150;2023-04-25T04:01:56;9.80;;;2.78;;
44046;SDS011;29713;-33.888;151.150;2023-04-25T04:04:24;8.88;;;2.20;;
44046;SDS011;29713;-33.888;151.150;2023-04-25T04:06:51;6.43;;;1.88;;
44046;SDS011;29713;-33.888;151.150;2023-04-25T04:09:18;8.43;;;2.72;;
44046;SDS011;29713;-33.888;151.150;2023-04-25T04:11:46;7.75;;;2.13;;
44046;SDS011;29713;-33.888;151.150;2023-04-25T04:14:13;6.53;;;1.83;;
44046;SDS011;29713;-33.888;151.150;2023-04-25T04:16:41;8.23;;;2.75;;
44046;SDS011;29713;-33.888;151.150;2023-04-25T04:19:08;9.02;;;2.25;;
44046;SDS011;29713;-33.888;151.150;2023-04-25T04:21:36;12.23;;;2.72;;
44046;SDS011;29713;-33.888;151.150;2023-04-25T04:24:03;9.98;;;2.50;;
44046;SDS011;29713;-33.888;151.150;2023-04-25T04:26:31;7.55;;;2.13;;
44046;SDS011;29713;-33.888;151.150;2023-04-25T04:28:59;6.78;;;2.15;;
44046;SDS011;29713;-33.888;151.150;2023-04-25T04:31:27;8.32;;;2.50;;
44046;SDS011;29713;-33.888;151.150;2023-04-25T04:33:55;10.35;;;2.35;;
44046;SDS011;29713;-33.888;151.150;2023-04-25T04:36:23;6.45;;;2.13;;
44046;SDS011;29713;-33.888;151.150;2023-04-25T04:38:52;7.30;;;2.15;;
44046;SDS011;29713;-33.888;151.150;2023-04-25T04:41:19;6.88;;;2.03;;
44046;SDS011;29713;-33.888;151.150;2023-04-25T04:43:46;7.13;;;2.30;;
44046;SDS011;29713;-33.888;151.150;2023-04-25T04:46:14;6.85;;;2.10;;
44046;SDS011;29713;-33.888;151.150;2023-04-25T04:48:41;11.23;;;2.40;;
44046;SDS011;29713;-33.888;151.150;2023-04-25T04:51:10;9.70;;;2.55;;
44046;SDS011;29713;-33.888;151.150;2023-04-25T04:53:37;8.52;;;2.25;;
44046;SDS011;29713;-33.888;151.150;2023-04-25T04:56:04;8.27;;;2.30;;
44046;SDS011;29713;-33.888;151.150;2023-04-25T04:58:32;11.88;;;3.08;;
44046;SDS011;29713;-33.888;151.150;2023-04-25T05:01:00;10.77;;;2.30;;
44046;SDS011;29713;-33.888;151.150;2023-04-25T05:03:28;8.75;;;2.15;;
44046;SDS011;29713;-33.888;151.150;2023-04-25T05:05:55;9.73;;;2.28;;
44046;SDS011;29713;-33.888;151.150;2023-04-25T05:08:23;6.63;;;1.92;;
44046;SDS011;29713;-33.888;151.150;2023-04-25T05:10:50;7.68;;;2.35;;
44046;SDS011;29713;-33.888;151.150;2023-04-25T05:13:17;5.82;;;2.13;;
44046;SDS011;29713;-33.888;151.150;2023-04-25T05:15:45;8.23;;;2.15;;
44046;SDS011;29713;-33.888;151.150;2023-04-25T05:18:12;7.43;;;2.35;;
44046;SDS011;29713;-33.888;151.150;2023-04-25T05:20:40;8.43;;;2.08;;
44046;SDS011;29713;-33.888;151.150;2023-04-25T05:23:07;9.32;;;2.72;;
44046;SDS011;29713;-33.888;151.150;2023-04-25T05:25:35;9.00;;;2.28;;
44046;SDS011;29713;-33.888;151.150;2023-04-25T05:28:02;9.07;;;2.65;;
44046;SDS011;29713;-33.888;151.150;2023-04-25T05:30:30;10.20;;;2.45;;
44046;SDS011;29713;-33.888;151.150;2023-04-25T05:32:57;10.63;;;2.53;;
44046;SDS011;29713;-33.888;151.150;2023-04-25T05:35:25;11.73;;;2.28;;
44046;SDS011;29713;-33.888;151.150;2023-04-25T05:37:52;7.88;;;2.17;;
44046;SDS011;29713;-33.888;151.150;2023-04-25T05:40:19;11.40;;;2.47;;
44046;SDS011;29713;-33.888;151.150;2023-04-25T05:42:47;6.65;;;2.17;;
44046;SDS011;29713;-33.888;151.150;2023-04-25T05:45:14;6.70;;;2.38;;
44046;SDS011;29713;-33.888;151.150;2023-04-25T05:47:43;7.25;;;2.40;;
44046;SDS011;29713;-33.888;151.150;2023-04-25T05:50:10;10.25;;;2.95;;
44046;SDS011;29713;-33.888;151.150;2023-04-25T05:52:37;7.72;;;2.17;;
44046;SDS011;29713;-33.888;151.150;2023-04-25T05:55:05;10.63;;;2.78;;
44046;SDS011;29713;-33.888;151.150;2023-04-25T05:57:33;10.55;;;2.67;;
44046;SDS011;29713;-33.888;151.150;2023-04-25T06:00:00;5.72;;;2.17;;
44046;SDS011;29713;-33.888;151.150;2023-04-25T06:02:29;7.78;;;2.17;;
44046;SDS011;29713;-33.888;151.150;2023-04-25T06:05:03;11.20;;;2.33;;
44046;SDS011;29713;-33.888;151.150;2023-04-25T06:07:53;8.43;;;2.15;;
44046;SDS011;29713;-33.888;151.150;2023-04-25T06:10:20;10.07;;;2.70;;
44046;SDS011;29713;-33.888;151.150;2023-04-25T06:12:48;10.35;;;2.70;;
44046;SDS011;29713;-33.888;151.150;2023-04-25T06:15:16;10.95;;;2.50;;
44046;SDS011;29713;-33.888;151.150;2023-04-25T06:17:43;12.65;;;2.63;;
44046;SDS011;29713;-33.888;151.150;2023-04-25T06:20:10;10.40;;;2.80;;
44046;SDS011;29713;-33.888;151.150;2023-04-25T06:22:38;9.73;;;2.42;;
44046;SDS011;29713;-33.888;151.150;2023-04-25T06:25:05;7.78;;;2.00;;
44046;SDS011;29713;-33.888;151.150;2023-04-25T06:27:33;7.70;;;2.03;;
44046;SDS011;29713;-33.888;151.150;2023-04-25T06:30:01;7.35;;;2.25;;
44046;SDS011;29713;-33.888;151.150;2023-04-25T06:32:29;9.10;;;2.60;;
44046;SDS011;29713;-33.888;151.150;2023-04-25T06:34:57;11.52;;;2.53;;
44046;SDS011;29713;-33.888;151.150;2023-04-25T06:37:24;7.68;;;2.25;;
44046;SDS011;29713;-33.888;151.150;2023-04-25T06:39:52;10.10;;;3.10;;
44046;SDS011;29713;-33.888;151.150;2023-04-25T06:42:19;7.85;;;2.47;;
44046;SDS011;29713;-33.888;151.150;2023-04-25T06:44:46;7.47;;;2.15;;
44046;SDS011;29713;-33.888;151.150;2023-04-25T06:47:14;13.20;;;2.90;;
44046;SDS011;29713;-33.888;151.150;2023-04-25T06:49:41;10.45;;;2.47;;
44046;SDS011;29713;-33.888;151.150;2023-04-25T06:52:09;11.02;;;2.70;;
44046;SDS011;29713;-33.888;151.150;2023-04-25T06:54:36;11.35;;;2.88;;
44046;SDS011;29713;-33.888;151.150;2023-04-25T06:57:03;7.25;;;2.17;;
44046;SDS011;29713;-33.888;151.150;2023-04-25T06:59:31;7.90;;;2.10;;
44046;SDS011;29713;-33.888;151.150;2023-04-25T07:01:58;11.80;;;2.80;;
44046;SDS011;29713;-33.888;151.150;2023-04-25T07:04:26;7.85;;;2.20;;
44046;SDS011;29713;-33.888;151.150;2023-04-25T07:06:53;8.48;;;2.30;;
44046;SDS011;29713;-33.888;151.150;2023-04-25T07:09:21;11.20;;;2.78;;
44046;SDS011;29713;-33.888;151.150;2023-04-25T07:11:48;8.27;;;2.33;;
44046;SDS011;29713;-33.888;151.150;2023-04-25T07:14:15;11.35;;;2.40;;
44046;SDS011;29713;-33.888;151.150;2023-04-25T07:16:43;6.55;;;1.98;;
44046;SDS011;29713;-33.888;151.150;2023-04-25T07:19:10;13.35;;;3.88;;
44046;SDS011;29713;-33.888;151.150;2023-04-25T07:21:38;10.32;;;2.78;;
44046;SDS011;29713;-33.888;151.150;2023-04-25T07:24:05;10.00;;;2.80;;
44046;SDS011;29713;-33.888;151.150;2023-04-25T07:26:33;13.15;;;3.05;;
44046;SDS011;29713;-33.888;151.150;2023-04-25T07:29:00;10.77;;;2.60;;
44046;SDS011;29713;-33.888;151.150;2023-04-25T07:31:28;9.82;;;2.40;;
44046;SDS011;29713;-33.888;151.150;2023-04-25T07:33:55;10.27;;;2.60;;
44046;SDS011;29713;-33.888;151.150;2023-04-25T07:36:23;10.25;;;3.42;;
44046;SDS011;29713;-33.888;151.150;2023-04-25T07:38:52;13.55;;;3.95;;
44046;SDS011;29713;-33.888;151.150;2023-04-25T07:41:19;11.07;;;2.72;;
44046;SDS011;29713;-33.888;151.150;2023-04-25T07:43:46;10.63;;;2.42;;
44046;SDS011;29713;-33.888;151.150;2023-04-25T07:46:14;9.80;;;2.60;;
44046;SDS011;29713;-33.888;151.150;2023-04-25T07:48:41;9.57;;;2.78;;
44046;SDS011;29713;-33.888;151.150;2023-04-25T07:51:08;9.73;;;2.60;;
44046;SDS011;29713;-33.888;151.150;2023-04-25T07:53:36;8.10;;;2.20;;
44046;SDS011;29713;-33.888;151.150;2023-04-25T07:56:03;11.52;;;2.67;;
44046;SDS011;29713;-33.888;151.150;2023-04-25T07:58:31;8.75;;;2.80;;
44046;SDS011;29713;-33.888;151.150;2023-04-25T08:00:58;10.32;;;2.67;;
44046;SDS011;29713;-33.888;151.150;2023-04-25T08:03:26;6.53;;;1.70;;
44046;SDS011;29713;-33.888;151.150;2023-04-25T08:05:53;7.80;;;2.70;;
44046;SDS011;29713;-33.888;151.150;2023-04-25T08:08:21;11.82;;;3.33;;
44046;SDS011;29713;-33.888;151.150;2023-04-25T08:10:48;10.52;;;2.55;;
44046;SDS011;29713;-33.888;151.150;2023-04-25T08:13:16;11.13;;;3.15;;
44046;SDS011;29713;-33.888;151.150;2023-04-25T08:15:43;10.70;;;2.65;;
44046;SDS011;29713;-33.888;151.150;2023-04-25T08:18:11;9.75;;;2.95;;
44046;SDS011;29713;-33.888;151.150;2023-04-25T08:20:38;10.40;;;2.80;;
44046;SDS011;29713;-33.888;151.150;2023-04-25T08:23:06;12.65;;;3.38;;
44046;SDS011;29713;-33.888;151.150;2023-04-25T08:25:33;13.30;;;3.50;;
44046;SDS011;29713;-33.888;151.150;2023-04-25T08:28:00;11.70;;;2.92;;
44046;SDS011;29713;-33.888;151.150;2023-04-25T08:30:29;12.77;;;2.95;;
44046;SDS011;29713;-33.888;151.150;2023-04-25T08:32:56;11.45;;;2.67;;
44046;SDS011;29713;-33.888;151.150;2023-04-25T08:35:24;12.13;;;3.15;;
44046;SDS011;29713;-33.888;151.150;2023-04-25T08:37:51;12.98;;;3.22;;
44046;SDS011;29713;-33.888;151.150;2023-04-25T08:40:18;13.70;;;3.20;;
44046;SDS011;29713;-33.888;151.150;2023-04-25T08:42:52;11.18;;;3.33;;
44046;SDS011;29713;-33.888;151.150;2023-04-25T08:45:20;11.25;;;2.75;;
44046;SDS011;29713;-33.888;151.150;2023-04-25T08:47:48;12.15;;;3.13;;
44046;SDS011;29713;-33.888;151.150;2023-04-25T08:50:18;12.50;;;3.50;;
44046;SDS011;29713;-33.888;151.150;2023-04-25T08:52:48;12.27;;;3.33;;
44046;SDS011;29713;-33.888;151.150;2023-04-25T08:55:19;13.23;;;3.13;;
44046;SDS011;29713;-33.888;151.150;2023-04-25T08:57:48;14.85;;;3.22;;
44046;SDS011;29713;-33.888;151.150;2023-04-25T09:00:16;8.45;;;2.50;;
44046;SDS011;29713;-33.888;151.150;2023-04-25T09:02:45;17.17;;;3.60;;
44046;SDS011;29713;-33.888;151.150;2023-04-25T09:05:14;11.30;;;2.97;;
44046;SDS011;29713;-33.888;151.150;2023-04-25T09:07:41;12.65;;;3.03;;
44046;SDS011;29713;-33.888;151.150;2023-04-25T09:10:08;11.70;;;3.72;;
44046;SDS011;29713;-33.888;151.150;2023-04-25T09:12:36;9.85;;;3.17;;
44046;SDS011;29713;-33.888;151.150;2023-04-25T09:15:07;13.70;;;3.05;;
44046;SDS011;29713;-33.888;151.150;2023-04-25T09:17:36;11.98;;;3.30;;
44046;SDS011;29713;-33.888;151.150;2023-04-25T09:20:06;12.38;;;3.45;;
44046;SDS011;29713;-33.888;151.150;2023-04-25T09:22:37;13.18;;;3.25;;
44046;SDS011;29713;-33.888;151.150;2023-04-25T09:25:09;10.77;;;2.75;;
44046;SDS011;29713;-33.888;151.150;2023-04-25T09:27:48;7.63;;;2.60;;
44046;SDS011;29713;-33.888;151.150;2023-04-25T09:30:17;10.60;;;3.08;;
44046;SDS011;29713;-33.888;151.150;2023-04-25T09:32:45;12.00;;;3.33;;
44046;SDS011;29713;-33.888;151.150;2023-04-25T09:35:23;15.18;;;3.88;;
44046;SDS011;29713;-33.888;151.150;2023-04-25T09:37:51;11.45;;;3.20;;
44046;SDS011;29713;-33.888;151.150;2023-04-25T09:40:19;12.35;;;3.45;;
44046;SDS011;29713;-33.888;151.150;2023-04-25T09:42:47;11.75;;;3.33;;
44046;SDS011;29713;-33.888;151.150;2023-04-25T09:45:14;17.60;;;3.60;;
44046;SDS011;29713;-33.888;151.150;2023-04-25T09:47:42;10.45;;;2.40;;
44046;SDS011;29713;-33.888;151.150;2023-04-25T09:50:15;13.15;;;3.08;;
44046;SDS011;29713;-33.888;151.150;2023-04-25T09:53:02;10.02;;;2.92;;
44046;SDS011;29713;-33.888;151.150;2023-04-25T09:55:32;12.10;;;3.17;;
44046;SDS011;29713;-33.888;151.150;2023-04-25T09:58:04;14.43;;;3.28;;
44046;SDS011;29713;-33.888;151.150;2023-04-25T10:00:32;10.65;;;2.70;;
44046;SDS011;29713;-33.888;151.150;2023-04-25T10:03:01;13.43;;;3.20;;
44046;SDS011;29713;-33.888;151.150;2023-04-25T10:05:30;15.32;;;3.47;;
44046;SDS011;29713;-33.888;151.150;2023-04-25T10:08:02;10.25;;;2.60;;
44046;SDS011;29713;-33.888;151.150;2023-04-25T10:10:30;11.88;;;2.42;;
44046;SDS011;29713;-33.888;151.150;2023-04-25T10:13:03;15.35;;;3.08;;
44046;SDS011;29713;-33.888;151.150;2023-04-25T10:15:34;13.48;;;2.60;;
44046;SDS011;29713;-33.888;151.150;2023-04-25T10:18:02;12.95;;;3.17;;
44046;SDS011;29713;-33.888;151.150;2023-04-25T10:20:32;14.40;;;3.08;;
44046;SDS011;29713;-33.888;151.150;2023-04-25T10:23:15;15.80;;;2.92;;
44046;SDS011;29713;-33.888;151.150;2023-04-25T10:25:43;11.38;;;2.53;;
44046;SDS011;29713;-33.888;151.150;2023-04-25T10:28:11;10.73;;;2.58;;
44046;SDS011;29713;-33.888;151.150;2023-04-25T10:30:56;11.75;;;2.85;;
44046;SDS011;29713;-33.888;151.150;2023-04-25T10:33:37;13.13;;;2.90;;
44046;SDS011;29713;-33.888;151.150;2023-04-25T10:38:39;7.95;;;2.53;;
44046;SDS011;29713;-33.888;151.150;2023-04-25T10:41:11;13.80;;;3.28;;
44046;SDS011;29713;-33.888;151.150;2023-04-25T10:43:43;9.90;;;3.00;;
44046;SDS011;29713;-33.888;151.150;2023-04-25T10:46:27;15.65;;;4.18;;
44046;SDS011;29713;-33.888;151.150;2023-04-25T10:49:00;11.02;;;3.92;;
44046;SDS011;29713;-33.888;151.150;2023-04-25T10:51:30;12.23;;;3.05;;
44046;SDS011;29713;-33.888;151.150;2023-04-25T10:54:00;11.30;;;3.40;;
44046;SDS011;29713;-33.888;151.150;2023-04-25T10:56:30;14.18;;;3.00;;
44046;SDS011;29713;-33.888;151.150;2023-04-25T11:01:42;8.32;;;2.67;;
44046;SDS011;29713;-33.888;151.150;2023-04-25T11:04:21;10.98;;;3.00;;
44046;SDS011;29713;-33.888;151.150;2023-04-25T11:09:35;10.15;;;2.70;;
44046;SDS011;29713;-33.888;151.150;2023-04-25T11:12:06;18.60;;;3.92;;
44046;SDS011;29713;-33.888;151.150;2023-04-25T11:14:37;12.65;;;3.40;;
44046;SDS011;29713;-33.888;151.150;2023-04-25T11:17:04;15.13;;;3.40;;
44046;SDS011;29713;-33.888;151.150;2023-04-25T11:19:31;9.65;;;3.00;;
44046;SDS011;29713;-33.888;151.150;2023-04-25T11:22:00;12.32;;;3.50;;
44046;SDS011;29713;-33.888;151.150;2023-04-25T11:24:29;14.68;;;3.17;;
44046;SDS011;29713;-33.888;151.150;2023-04-25T11:26:58;10.48;;;2.70;;
44046;SDS011;29713;-33.888;151.150;2023-04-25T11:29:28;16.35;;;3.38;;
44046;SDS011;29713;-33.888;151.150;2023-04-25T11:31:59;13.15;;;3.28;;
44046;SDS011;29713;-33.888;151.150;2023-04-25T11:34:28;12.30;;;2.90;;
44046;SDS011;29713;-33.888;151.150;2023-04-25T11:36:59;13.98;;;3.15;;
44046;SDS011;29713;-33.888;151.150;2023-04-25T11:39:27;13.35;;;3.00;;
44046;SDS011;29713;-33.888;151.150;2023-04-25T11:41:55;14.48;;;3.00;;
44046;SDS011;29713;-33.888;151.150;2023-04-25T11:44:23;11.43;;;3.00;;
44046;SDS011;29713;-33.888;151.150;2023-04-25T11:46:51;13.98;;;3.70;;
44046;SDS011;29713;-33.888;151.150;2023-04-25T11:49:19;8.48;;;2.30;;
44046;SDS011;29713;-33.888;151.150;2023-04-25T11:51:48;15.13;;;3.58;;
44046;SDS011;29713;-33.888;151.150;2023-04-25T11:54:15;13.30;;;3.15;;
44046;SDS011;29713;-33.888;151.150;2023-04-25T11:56:43;12.05;;;2.60;;
44046;SDS011;29713;-33.888;151.150;2023-04-25T11:59:11;10.93;;;2.88;;
44046;SDS011;29713;-33.888;151.150;2023-04-25T12:01:40;13.23;;;3.03;;
44046;SDS011;29713;-33.888;151.150;2023-04-25T12:04:14;10.48;;;2.53;;
44046;SDS011;29713;-33.888;151.150;2023-04-25T12:06:44;13.57;;;2.92;;
44046;SDS011;29713;-33.888;151.150;2023-04-25T12:09:13;11.23;;;2.67;;
44046;SDS011;29713;-33.888;151.150;2023-04-25T12:11:53;13.25;;;2.70;;
44046;SDS011;29713;-33.888;151.150;2023-04-25T12:14:24;9.00;;;2.90;;
44046;SDS011;29713;-33.888;151.150;2023-04-25T12:16:57;14.52;;;2.80;;
44046;SDS011;29713;-33.888;151.150;2023-04-25T12:19:26;11.35;;;2.72;;
44046;SDS011;29713;-33.888;151.150;2023-04-25T12:22:03;11.25;;;3.17;;
44046;SDS011;29713;-33.888;151.150;2023-04-25T12:24:45;9.18;;;2.75;;
44046;SDS011;29713;-33.888;151.150;2023-04-25T12:27:14;12.13;;;3.33;;
44046;SDS011;29713;-33.888;151.150;2023-04-25T12:29:54;16.58;;;3.55;;
44046;SDS011;29713;-33.888;151.150;2023-04-25T12:32:22;12.93;;;3.10;;
44046;SDS011;29713;-33.888;151.150;2023-04-25T12:34:50;16.55;;;3.30;;
44046;SDS011;29713;-33.888;151.150;2023-04-25T12:37:18;11.02;;;3.33;;
44046;SDS011;29713;-33.888;151.150;2023-04-25T12:39:45;15.05;;;3.50;;
44046;SDS011;29713;-33.888;151.150;2023-04-25T12:42:12;14.07;;;3.10;;
44046;SDS011;29713;-33.888;151.150;2023-04-25T12:44:40;16.05;;;3.75;;
44046;SDS011;29713;-33.888;151.150;2023-04-25T12:47:07;11.27;;;3.03;;
44046;SDS011;29713;-33.888;151.150;2023-04-25T12:49:34;14.13;;;3.17;;
44046;SDS011;29713;-33.888;151.150;2023-04-25T12:52:02;13.55;;;3.85;;
44046;SDS011;29713;-33.888;151.150;2023-04-25T12:54:29;9.88;;;2.60;;
44046;SDS011;29713;-33.888;151.150;2023-04-25T12:56:57;14.77;;;3.47;;
44046;SDS011;29713;-33.888;151.150;2023-04-25T12:59:24;11.52;;;4.15;;
44046;SDS011;29713;-33.888;151.150;2023-04-25T13:01:52;15.80;;;5.15;;
44046;SDS011;29713;-33.888;151.150;2023-04-25T13:04:19;14.68;;;4.50;;
44046;SDS011;29713;-33.888;151.150;2023-04-25T13:06:47;17.05;;;4.40;;
44046;SDS011;29713;-33.888;151.150;2023-04-25T13:09:14;10.50;;;3.35;;
44046;SDS011;29713;-33.888;151.150;2023-04-25T13:11:42;13.07;;;3.35;;
44046;SDS011;29713;-33.888;151.150;2023-04-25T13:14:11;13.13;;;3.75;;
44046;SDS011;29713;-33.888;151.150;2023-04-25T13:16:39;16.48;;;3.75;;
44046;SDS011;29713;-33.888;151.150;2023-04-25T13:19:06;15.07;;;4.25;;
44046;SDS011;29713;-33.888;151.150;2023-04-25T13:21:36;34.28;;;12.40;;
44046;SDS011;29713;-33.888;151.150;2023-04-25T13:24:04;35.35;;;13.93;;
44046;SDS011;29713;-33.888;151.150;2023-04-25T13:26:32;32.83;;;12.57;;
44046;SDS011;29713;-33.888;151.150;2023-04-25T13:28:59;23.02;;;8.85;;
44046;SDS011;29713;-33.888;151.150;2023-04-25T13:31:29;18.45;;;6.97;;
44046;SDS011;29713;-33.888;151.150;2023-04-25T13:33:57;12.70;;;4.32;;
44046;SDS011;29713;-33.888;151.150;2023-04-25T13:36:24;20.77;;;4.53;;
44046;SDS011;29713;-33.888;151.150;2023-04-25T13:38:51;16.80;;;3.80;;
44046;SDS011;29713;-33.888;151.150;2023-04-25T13:41:19;11.77;;;3.28;;
44046;SDS011;29713;-33.888;151.150;2023-04-25T13:43:46;13.02;;;3.85;;
44046;SDS011;29713;-33.888;151.150;2023-04-25T13:46:14;15.05;;;3.55;;
44046;SDS011;29713;-33.888;151.150;2023-04-25T13:48:41;18.63;;;6.53;;
44046;SDS011;29713;-33.888;151.150;2023-04-25T13:51:12;13.38;;;3.35;;
44046;SDS011;29713;-33.888;151.150;2023-04-25T13:53:41;17.85;;;3.85;;
44046;SDS011;29713;-33.888;151.150;2023-04-25T13:56:08;12.18;;;2.60;;
44046;SDS011;29713;-33.888;151.150;2023-04-25T13:58:37;16.13;;;3.17;;
44046;SDS011;29713;-33.888;151.150;2023-04-25T14:01:05;11.60;;;3.65;;
44046;SDS011;29713;-33.888;151.150;2023-04-25T14:03:32;14.75;;;3.28;;
44046;SDS011;29713;-33.888;151.150;2023-04-25T14:05:59;11.02;;;2.95;;
44046;SDS011;29713;-33.888;151.150;2023-04-25T14:08:27;12.57;;;3.75;;
44046;SDS011;29713;-33.888;151.150;2023-04-25T14:10:54;13.68;;;3.53;;
44046;SDS011;29713;-33.888;151.150;2023-04-25T14:13:22;10.52;;;3.20;;
44046;SDS011;29713;-33.888;151.150;2023-04-25T14:15:52;13.55;;;3.95;;